sensor_id;sensor_type;location;lat;lon;timestamp;temperature;humidity
1337;DHT22;662;48.814;9.318;2022-10-23T00:01:29;14.50;72.90
1337;DHT22;662;48.814;9.318;2022-10-23T00:04:03;14.50;72.90
1337;DHT22;662;48.814;9.318;2022-10-23T00:06:30;14.40;72.70
1337;DHT22;662;48.814;9.318;2022-10-23T00:08:56;14.40;72.70
1337;DHT22;662;48.814;9.318;2022-10-23T00:11:23;14.40;72.80
1337;DHT22;662;48.814;9.318;2022-10-23T00:13:50;14.40;72.90
1337;DHT22;662;48.814;9.318;2022-10-23T00:16:16;14.40;72.90
1337;DHT22;662;48.814;9.318;2022-10-23T00:18:41;14.40;72.90
1337;DHT22;662;48.814;9.318;2022-10-23T00:21:09;14.40;73.00
1337;DHT22;662;48.814;9.318;2022-10-23T00:23:35;14.30;72.90
1337;DHT22;662;48.814;9.318;2022-10-23T00:26:01;14.30;73.00
1337;DHT22;662;48.814;9.318;2022-10-23T00:28:27;14.30;73.00
1337;DHT22;662;48.814;9.318;2022-10-23T00:30:53;14.30;72.90
1337;DHT22;662;48.814;9.318;2022-10-23T00:33:18;14.30;72.80
1337;DHT22;662;48.814;9.318;2022-10-23T00:35:44;14.30;72.80
1337;DHT22;662;48.814;9.318;2022-10-23T00:38:10;14.30;72.80
1337;DHT22;662;48.814;9.318;2022-10-23T00:40:37;14.20;72.80
1337;DHT22;662;48.814;9.318;2022-10-23T00:43:03;14.20;72.80
1337;DHT22;662;48.814;9.318;2022-10-23T00:45:30;14.20;72.80
1337;DHT22;662;48.814;9.318;2022-10-23T00:48:00;14.20;72.80
1337;DHT22;662;48.814;9.318;2022-10-23T00:50:29;14.10;72.80
1337;DHT22;662;48.814;9.318;2022-10-23T00:52:56;14.10;73.00
1337;DHT22;662;48.814;9.318;2022-10-23T00:55:24;14.10;73.30
1337;DHT22;662;48.814;9.318;2022-10-23T00:57:50;14.00;73.40
1337;DHT22;662;48.814;9.318;2022-10-23T01:00:23;14.00;73.50
1337;DHT22;662;48.814;9.318;2022-10-23T01:02:49;14.00;73.50
1337;DHT22;662;48.814;9.318;2022-10-23T01:05:15;14.00;73.50
1337;DHT22;662;48.814;9.318;2022-10-23T01:07:57;14.00;73.40
1337;DHT22;662;48.814;9.318;2022-10-23T01:10:43;14.00;73.30
1337;DHT22;662;48.814;9.318;2022-10-23T01:16:50;13.90;72.90
1337;DHT22;662;48.814;9.318;2022-10-23T01:19:46;13.80;72.70
1337;DHT22;662;48.814;9.318;2022-10-23T01:28:03;13.70;73.00
1337;DHT22;662;48.814;9.318;2022-10-23T01:30:32;13.70;73.10
1337;DHT22;662;48.814;9.318;2022-10-23T01:33:08;13.70;73.20
1337;DHT22;662;48.814;9.318;2022-10-23T01:35:39;13.70;73.20
1337;DHT22;662;48.814;9.318;2022-10-23T01:43:25;13.60;73.30
1337;DHT22;662;48.814;9.318;2022-10-23T01:45:55;13.70;73.20
1337;DHT22;662;48.814;9.318;2022-10-23T01:48:25;13.70;73.30
1337;DHT22;662;48.814;9.318;2022-10-23T01:50:54;13.60;73.20
1337;DHT22;662;48.814;9.318;2022-10-23T01:53:22;13.70;73.20
1337;DHT22;662;48.814;9.318;2022-10-23T01:55:50;13.70;73.30
1337;DHT22;662;48.814;9.318;2022-10-23T01:58:16;13.70;73.40
1337;DHT22;662;48.814;9.318;2022-10-23T02:00:46;13.60;73.20
1337;DHT22;662;48.814;9.318;2022-10-23T02:03:14;13.60;73.20
1337;DHT22;662;48.814;9.318;2022-10-23T02:05:42;13.60;73.20
1337;DHT22;662;48.814;9.318;2022-10-23T02:08:08;13.60;73.30
1337;DHT22;662;48.814;9.318;2022-10-23T02:11:01;13.60;73.30
1337;DHT22;662;48.814;9.318;2022-10-23T02:13:56;13.60;74.10
1337;DHT22;662;48.814;9.318;2022-10-23T02:19:07;13.60;73.30
1337;DHT22;662;48.814;9.318;2022-10-23T02:24:25;13.50;73.10
1337;DHT22;662;48.814;9.318;2022-10-23T02:26:56;13.50;73.10
1337;DHT22;662;48.814;9.318;2022-10-23T02:29:36;13.50;73.20
1337;DHT22;662;48.814;9.318;2022-10-23T02:32:04;13.50;73.30
1337;DHT22;662;48.814;9.318;2022-10-23T02:34:30;13.40;73.10
1337;DHT22;662;48.814;9.318;2022-10-23T02:36:56;13.40;73.10
1337;DHT22;662;48.814;9.318;2022-10-23T02:39:23;13.40;73.20
1337;DHT22;662;48.814;9.318;2022-10-23T02:42:09;13.40;73.30
1337;DHT22;662;48.814;9.318;2022-10-23T02:47:29;13.40;73.50
1337;DHT22;662;48.814;9.318;2022-10-23T02:53:08;13.40;73.70
1337;DHT22;662;48.814;9.318;2022-10-23T02:55:49;13.40;73.80
1337;DHT22;662;48.814;9.318;2022-10-23T03:00:51;13.40;73.80
1337;DHT22;662;48.814;9.318;2022-10-23T03:03:25;13.40;73.80
1337;DHT22;662;48.814;9.318;2022-10-23T03:05:52;13.40;73.80
1337;DHT22;662;48.814;9.318;2022-10-23T03:08:18;13.40;73.90
1337;DHT22;662;48.814;9.318;2022-10-23T03:10:43;13.40;73.90
1337;DHT22;662;48.814;9.318;2022-10-23T03:13:10;13.40;73.90
1337;DHT22;662;48.814;9.318;2022-10-23T03:15:35;13.40;73.90
1337;DHT22;662;48.814;9.318;2022-10-23T03:18:01;13.40;73.90
1337;DHT22;662;48.814;9.318;2022-10-23T03:20:26;13.40;74.00
1337;DHT22;662;48.814;9.318;2022-10-23T03:22:52;13.40;74.10
1337;DHT22;662;48.814;9.318;2022-10-23T03:25:18;13.40;74.00
1337;DHT22;662;48.814;9.318;2022-10-23T03:27:43;13.40;74.00
1337;DHT22;662;48.814;9.318;2022-10-23T03:30:09;13.40;74.00
1337;DHT22;662;48.814;9.318;2022-10-23T03:32:35;13.40;73.90
1337;DHT22;662;48.814;9.318;2022-10-23T03:35:00;13.30;73.80
1337;DHT22;662;48.814;9.318;2022-10-23T03:37:26;13.40;73.80
1337;DHT22;662;48.814;9.318;2022-10-23T03:39:51;13.40;74.50
1337;DHT22;662;48.814;9.318;2022-10-23T03:42:17;13.30;73.60
1337;DHT22;662;48.814;9.318;2022-10-23T03:44:43;13.30;73.60
1337;DHT22;662;48.814;9.318;2022-10-23T03:47:09;13.30;73.70
1337;DHT22;662;48.814;9.318;2022-10-23T03:49:37;13.30;73.70
1337;DHT22;662;48.814;9.318;2022-10-23T03:52:03;13.30;73.70
1337;DHT22;662;48.814;9.318;2022-10-23T03:54:29;13.30;73.70
1337;DHT22;662;48.814;9.318;2022-10-23T03:56:55;13.30;73.60
1337;DHT22;662;48.814;9.318;2022-10-23T03:59:21;13.40;74.30
1337;DHT22;662;48.814;9.318;2022-10-23T04:01:46;13.30;73.50
1337;DHT22;662;48.814;9.318;2022-10-23T04:04:13;13.30;73.60
1337;DHT22;662;48.814;9.318;2022-10-23T04:06:39;13.30;73.60
1337;DHT22;662;48.814;9.318;2022-10-23T04:09:05;13.30;73.60
1337;DHT22;662;48.814;9.318;2022-10-23T04:11:31;13.30;73.60
1337;DHT22;662;48.814;9.318;2022-10-23T04:13:57;13.30;73.60
1337;DHT22;662;48.814;9.318;2022-10-23T04:16:23;13.30;73.60
1337;DHT22;662;48.814;9.318;2022-10-23T04:18:48;13.30;73.70
1337;DHT22;662;48.814;9.318;2022-10-23T04:21:14;13.30;73.80
1337;DHT22;662;48.814;9.318;2022-10-23T04:23:40;13.30;73.80
1337;DHT22;662;48.814;9.318;2022-10-23T04:26:06;13.20;73.70
1337;DHT22;662;48.814;9.318;2022-10-23T04:28:31;13.30;73.90
1337;DHT22;662;48.814;9.318;2022-10-23T04:30:57;13.20;73.70
1337;DHT22;662;48.814;9.318;2022-10-23T04:33:23;13.30;73.80
1337;DHT22;662;48.814;9.318;2022-10-23T04:35:49;13.20;73.70
1337;DHT22;662;48.814;9.318;2022-10-23T04:38:15;13.20;73.80
1337;DHT22;662;48.814;9.318;2022-10-23T04:40:40;13.20;73.90
1337;DHT22;662;48.814;9.318;2022-10-23T04:43:06;13.20;73.90
1337;DHT22;662;48.814;9.318;2022-10-23T04:45:32;13.10;73.80
1337;DHT22;662;48.814;9.318;2022-10-23T04:47:57;13.20;73.90
1337;DHT22;662;48.814;9.318;2022-10-23T04:50:23;13.10;74.50
1337;DHT22;662;48.814;9.318;2022-10-23T04:52:53;13.10;73.80
1337;DHT22;662;48.814;9.318;2022-10-23T04:55:19;13.10;73.90
1337;DHT22;662;48.814;9.318;2022-10-23T04:57:45;13.10;73.90
1337;DHT22;662;48.814;9.318;2022-10-23T05:00:12;13.10;74.00
1337;DHT22;662;48.814;9.318;2022-10-23T05:02:38;13.10;73.90
1337;DHT22;662;48.814;9.318;2022-10-23T05:05:05;13.10;74.00
1337;DHT22;662;48.814;9.318;2022-10-23T05:07:31;13.10;74.00
1337;DHT22;662;48.814;9.318;2022-10-23T05:09:57;13.10;74.10
1337;DHT22;662;48.814;9.318;2022-10-23T05:12:22;13.10;74.10
1337;DHT22;662;48.814;9.318;2022-10-23T05:14:49;13.10;74.20
1337;DHT22;662;48.814;9.318;2022-10-23T05:17:18;13.10;74.30
1337;DHT22;662;48.814;9.318;2022-10-23T05:19:50;13.10;74.30
1337;DHT22;662;48.814;9.318;2022-10-23T05:22:18;13.20;74.30
1337;DHT22;662;48.814;9.318;2022-10-23T05:24:45;13.10;74.30
1337;DHT22;662;48.814;9.318;2022-10-23T05:27:10;13.10;74.30
1337;DHT22;662;48.814;9.318;2022-10-23T05:29:36;13.10;74.30
1337;DHT22;662;48.814;9.318;2022-10-23T05:32:04;13.20;74.40
1337;DHT22;662;48.814;9.318;2022-10-23T05:34:32;13.10;74.30
1337;DHT22;662;48.814;9.318;2022-10-23T05:37:00;13.10;74.30
1337;DHT22;662;48.814;9.318;2022-10-23T05:39:26;13.20;74.40
1337;DHT22;662;48.814;9.318;2022-10-23T05:41:52;13.10;74.20
1337;DHT22;662;48.814;9.318;2022-10-23T05:44:19;13.20;74.30
1337;DHT22;662;48.814;9.318;2022-10-23T05:46:45;13.10;74.10
1337;DHT22;662;48.814;9.318;2022-10-23T05:49:11;13.10;74.10
1337;DHT22;662;48.814;9.318;2022-10-23T05:51:38;13.20;74.20
1337;DHT22;662;48.814;9.318;2022-10-23T05:54:05;13.20;74.20
1337;DHT22;662;48.814;9.318;2022-10-23T05:56:38;13.20;74.20
1337;DHT22;662;48.814;9.318;2022-10-23T05:59:06;13.20;74.20
1337;DHT22;662;48.814;9.318;2022-10-23T06:01:32;13.10;74.10
1337;DHT22;662;48.814;9.318;2022-10-23T06:04:02;13.10;74.10
1337;DHT22;662;48.814;9.318;2022-10-23T06:06:28;13.20;74.30
1337;DHT22;662;48.814;9.318;2022-10-23T06:08:53;13.20;74.40
1337;DHT22;662;48.814;9.318;2022-10-23T06:11:19;13.20;74.30
1337;DHT22;662;48.814;9.318;2022-10-23T06:13:45;13.20;74.30
1337;DHT22;662;48.814;9.318;2022-10-23T06:16:21;13.20;74.40
1337;DHT22;662;48.814;9.318;2022-10-23T06:18:46;13.20;74.40
1337;DHT22;662;48.814;9.318;2022-10-23T06:21:13;13.10;74.30
1337;DHT22;662;48.814;9.318;2022-10-23T06:23:40;13.10;74.60
1337;DHT22;662;48.814;9.318;2022-10-23T06:26:08;13.10;74.90
1337;DHT22;662;48.814;9.318;2022-10-23T06:28:35;13.20;75.20
1337;DHT22;662;48.814;9.318;2022-10-23T06:31:05;13.20;75.40
1337;DHT22;662;48.814;9.318;2022-10-23T06:33:30;13.20;76.10
1337;DHT22;662;48.814;9.318;2022-10-23T06:35:56;13.30;75.60
1337;DHT22;662;48.814;9.318;2022-10-23T06:38:22;13.30;75.50
1337;DHT22;662;48.814;9.318;2022-10-23T06:40:56;13.30;75.30
1337;DHT22;662;48.814;9.318;2022-10-23T06:43:22;13.30;75.30
1337;DHT22;662;48.814;9.318;2022-10-23T06:45:47;13.30;75.50
1337;DHT22;662;48.814;9.318;2022-10-23T06:48:14;13.40;75.60
1337;DHT22;662;48.814;9.318;2022-10-23T06:50:40;13.40;75.50
1337;DHT22;662;48.814;9.318;2022-10-23T06:53:06;13.50;75.60
1337;DHT22;662;48.814;9.318;2022-10-23T06:55:31;13.50;75.40
1337;DHT22;662;48.814;9.318;2022-10-23T06:57:57;13.50;75.30
1337;DHT22;662;48.814;9.318;2022-10-23T07:00:23;13.60;75.30
1337;DHT22;662;48.814;9.318;2022-10-23T07:02:50;13.60;75.20
1337;DHT22;662;48.814;9.318;2022-10-23T07:05:16;13.60;75.00
1337;DHT22;662;48.814;9.318;2022-10-23T07:07:42;13.70;75.00
1337;DHT22;662;48.814;9.318;2022-10-23T07:10:08;13.70;75.00
1337;DHT22;662;48.814;9.318;2022-10-23T07:12:33;13.70;74.80
1337;DHT22;662;48.814;9.318;2022-10-23T07:14:59;13.80;75.60
1337;DHT22;662;48.814;9.318;2022-10-23T07:17:24;13.90;74.90
1337;DHT22;662;48.814;9.318;2022-10-23T07:19:50;13.90;74.70
1337;DHT22;662;48.814;9.318;2022-10-23T07:22:15;13.90;74.60
1337;DHT22;662;48.814;9.318;2022-10-23T07:24:41;14.00;74.60
1337;DHT22;662;48.814;9.318;2022-10-23T07:27:07;14.00;74.50
1337;DHT22;662;48.814;9.318;2022-10-23T07:29:32;14.10;74.50
1337;DHT22;662;48.814;9.318;2022-10-23T07:31:59;14.10;74.40
1337;DHT22;662;48.814;9.318;2022-10-23T07:34:28;14.20;74.40
1337;DHT22;662;48.814;9.318;2022-10-23T07:36:55;14.30;74.40
1337;DHT22;662;48.814;9.318;2022-10-23T07:39:21;14.30;74.30
1337;DHT22;662;48.814;9.318;2022-10-23T07:41:47;14.30;74.20
1337;DHT22;662;48.814;9.318;2022-10-23T07:44:14;14.40;74.30
1337;DHT22;662;48.814;9.318;2022-10-23T07:46:39;14.50;74.30
1337;DHT22;662;48.814;9.318;2022-10-23T07:49:05;14.50;74.90
1337;DHT22;662;48.814;9.318;2022-10-23T07:51:30;14.60;74.20
1337;DHT22;662;48.814;9.318;2022-10-23T07:53:56;14.70;74.20
1337;DHT22;662;48.814;9.318;2022-10-23T07:56:24;14.70;74.00
1337;DHT22;662;48.814;9.318;2022-10-23T07:58:51;14.80;74.00
1337;DHT22;662;48.814;9.318;2022-10-23T08:01:39;14.90;74.00
1337;DHT22;662;48.814;9.318;2022-10-23T08:04:07;15.00;74.00
1337;DHT22;662;48.814;9.318;2022-10-23T08:06:33;15.00;73.90
1337;DHT22;662;48.814;9.318;2022-10-23T08:08:59;15.10;73.90
1337;DHT22;662;48.814;9.318;2022-10-23T08:11:25;15.20;73.90
1337;DHT22;662;48.814;9.318;2022-10-23T08:13:54;15.30;74.10
1337;DHT22;662;48.814;9.318;2022-10-23T08:16:20;15.40;74.70
1337;DHT22;662;48.814;9.318;2022-10-23T08:18:46;15.50;74.00
1337;DHT22;662;48.814;9.318;2022-10-23T08:21:14;15.60;73.90
1337;DHT22;662;48.814;9.318;2022-10-23T08:23:41;15.70;73.80
1337;DHT22;662;48.814;9.318;2022-10-23T08:26:07;15.90;73.90
1337;DHT22;662;48.814;9.318;2022-10-23T08:28:33;16.10;73.70
1337;DHT22;662;48.814;9.318;2022-10-23T08:31:04;16.10;73.50
1337;DHT22;662;48.814;9.318;2022-10-23T08:33:30;16.30;73.60
1337;DHT22;662;48.814;9.318;2022-10-23T08:35:55;16.60;73.30
1337;DHT22;662;48.814;9.318;2022-10-23T08:38:21;16.70;73.10
1337;DHT22;662;48.814;9.318;2022-10-23T08:40:48;16.60;72.80
1337;DHT22;662;48.814;9.318;2022-10-23T08:43:33;16.70;72.80
1337;DHT22;662;48.814;9.318;2022-10-23T08:46:06;16.70;72.60
1337;DHT22;662;48.814;9.318;2022-10-23T08:48:41;16.80;72.60
1337;DHT22;662;48.814;9.318;2022-10-23T08:51:15;16.80;72.40
1337;DHT22;662;48.814;9.318;2022-10-23T08:53:52;16.80;72.20
1337;DHT22;662;48.814;9.318;2022-10-23T08:56:36;16.90;72.20
1337;DHT22;662;48.814;9.318;2022-10-23T08:59:12;16.90;72.00
1337;DHT22;662;48.814;9.318;2022-10-23T09:01:57;16.90;71.80
1337;DHT22;662;48.814;9.318;2022-10-23T09:04:24;17.00;71.90
1337;DHT22;662;48.814;9.318;2022-10-23T09:12:21;17.00;71.50
1337;DHT22;662;48.814;9.318;2022-10-23T09:18:01;17.10;71.50
1337;DHT22;662;48.814;9.318;2022-10-23T09:20:33;17.10;71.60
1337;DHT22;662;48.814;9.318;2022-10-23T09:23:19;17.10;71.60
1337;DHT22;662;48.814;9.318;2022-10-23T09:25:46;17.20;71.50
1337;DHT22;662;48.814;9.318;2022-10-23T09:28:21;17.30;71.60
1337;DHT22;662;48.814;9.318;2022-10-23T09:30:48;17.30;71.50
1337;DHT22;662;48.814;9.318;2022-10-23T09:33:22;17.40;71.50
1337;DHT22;662;48.814;9.318;2022-10-23T09:35:56;17.50;71.40
1337;DHT22;662;48.814;9.318;2022-10-23T09:41:01;17.60;71.10
1337;DHT22;662;48.814;9.318;2022-10-23T09:43:27;17.70;71.00
1337;DHT22;662;48.814;9.318;2022-10-23T09:46:02;17.80;70.70
1337;DHT22;662;48.814;9.318;2022-10-23T09:48:28;17.90;70.60
1337;DHT22;662;48.814;9.318;2022-10-23T09:50:55;18.00;70.30
1337;DHT22;662;48.814;9.318;2022-10-23T09:54:10;18.10;70.00
1337;DHT22;662;48.814;9.318;2022-10-23T09:56:30;18.20;69.40
1337;DHT22;662;48.814;9.318;2022-10-23T10:01:52;18.30;69.00
1337;DHT22;662;48.814;9.318;2022-10-23T10:04:18;18.40;68.90
1337;DHT22;662;48.814;9.318;2022-10-23T10:06:44;18.60;68.80
1337;DHT22;662;48.814;9.318;2022-10-23T10:09:13;18.70;68.60
1337;DHT22;662;48.814;9.318;2022-10-23T10:11:55;18.70;67.90
1337;DHT22;662;48.814;9.318;2022-10-23T10:14:30;18.80;67.10
1337;DHT22;662;48.814;9.318;2022-10-23T10:17:05;18.90;66.20
1337;DHT22;662;48.814;9.318;2022-10-23T10:25:35;19.30;64.80
1337;DHT22;662;48.814;9.318;2022-10-23T10:36:39;19.90;63.30
1337;DHT22;662;48.814;9.318;2022-10-23T10:39:30;20.00;62.80
1337;DHT22;662;48.814;9.318;2022-10-23T10:44:58;20.30;61.80
1337;DHT22;662;48.814;9.318;2022-10-23T10:47:43;20.40;61.50
1337;DHT22;662;48.814;9.318;2022-10-23T10:50:48;20.50;62.30
1337;DHT22;662;48.814;9.318;2022-10-23T10:55:48;20.60;61.40
1337;DHT22;662;48.814;9.318;2022-10-23T10:58:37;20.70;61.00
1337;DHT22;662;48.814;9.318;2022-10-23T11:01:12;20.80;60.70
1337;DHT22;662;48.814;9.318;2022-10-23T11:03:46;20.90;60.60
1337;DHT22;662;48.814;9.318;2022-10-23T11:06:22;21.00;60.60
1337;DHT22;662;48.814;9.318;2022-10-23T11:08:48;21.10;60.40
1337;DHT22;662;48.814;9.318;2022-10-23T11:11:23;21.20;60.20
1337;DHT22;662;48.814;9.318;2022-10-23T11:13:50;21.30;60.10
1337;DHT22;662;48.814;9.318;2022-10-23T11:16:21;21.50;59.80
1337;DHT22;662;48.814;9.318;2022-10-23T11:19:28;21.70;59.80
1337;DHT22;662;48.814;9.318;2022-10-23T11:22:09;21.80;59.10
1337;DHT22;662;48.814;9.318;2022-10-23T11:30:22;22.20;58.30
1337;DHT22;662;48.814;9.318;2022-10-23T11:40:44;22.30;57.50
1337;DHT22;662;48.814;9.318;2022-10-23T11:43:10;22.20;57.40
1337;DHT22;662;48.814;9.318;2022-10-23T11:45:38;22.00;56.60
1337;DHT22;662;48.814;9.318;2022-10-23T11:48:19;21.90;55.40
1337;DHT22;662;48.814;9.318;2022-10-23T11:58:27;21.60;56.40
1337;DHT22;662;48.814;9.318;2022-10-23T12:01:24;21.60;56.80
1337;DHT22;662;48.814;9.318;2022-10-23T12:04:04;21.60;56.80
1337;DHT22;662;48.814;9.318;2022-10-23T12:07:00;21.60;56.30
1337;DHT22;662;48.814;9.318;2022-10-23T12:14:34;21.70;56.80
1337;DHT22;662;48.814;9.318;2022-10-23T12:17:00;21.80;56.70
1337;DHT22;662;48.814;9.318;2022-10-23T12:19:29;21.90;56.80
1337;DHT22;662;48.814;9.318;2022-10-23T12:22:00;22.10;57.20
1337;DHT22;662;48.814;9.318;2022-10-23T12:27:11;22.20;57.30
1337;DHT22;662;48.814;9.318;2022-10-23T12:32:28;22.40;57.20
1337;DHT22;662;48.814;9.318;2022-10-23T12:38:09;22.40;56.10
1337;DHT22;662;48.814;9.318;2022-10-23T12:40:37;22.50;55.90
1337;DHT22;662;48.814;9.318;2022-10-23T12:43:24;22.50;55.60
1337;DHT22;662;48.814;9.318;2022-10-23T12:45:50;22.60;55.40
1337;DHT22;662;48.814;9.318;2022-10-23T12:48:21;22.70;55.30
1337;DHT22;662;48.814;9.318;2022-10-23T12:50:49;22.80;55.30
1337;DHT22;662;48.814;9.318;2022-10-23T12:53:17;22.90;55.30
1337;DHT22;662;48.814;9.318;2022-10-23T12:55:59;23.00;55.20
1337;DHT22;662;48.814;9.318;2022-10-23T12:58:29;23.00;54.80
1337;DHT22;662;48.814;9.318;2022-10-23T13:00:57;23.30;54.70
1337;DHT22;662;48.814;9.318;2022-10-23T13:03:25;23.50;54.60
1337;DHT22;662;48.814;9.318;2022-10-23T13:05:53;23.90;54.00
1337;DHT22;662;48.814;9.318;2022-10-23T13:08:20;24.30;53.60
1337;DHT22;662;48.814;9.318;2022-10-23T13:10:47;24.60;53.20
1337;DHT22;662;48.814;9.318;2022-10-23T13:13:16;25.10;53.20
1337;DHT22;662;48.814;9.318;2022-10-23T13:15:44;25.50;52.50
1337;DHT22;662;48.814;9.318;2022-10-23T13:18:12;25.90;51.50
1337;DHT22;662;48.814;9.318;2022-10-23T13:25:51;26.80;49.00
1337;DHT22;662;48.814;9.318;2022-10-23T13:31:20;27.40;47.60
1337;DHT22;662;48.814;9.318;2022-10-23T13:36:25;27.80;46.40
1337;DHT22;662;48.814;9.318;2022-10-23T13:41:24;27.70;46.00
1337;DHT22;662;48.814;9.318;2022-10-23T13:43:49;27.50;46.30
1337;DHT22;662;48.814;9.318;2022-10-23T13:46:21;27.10;46.90
1337;DHT22;662;48.814;9.318;2022-10-23T13:48:47;26.80;47.80
1337;DHT22;662;48.814;9.318;2022-10-23T13:51:21;26.50;47.60
1337;DHT22;662;48.814;9.318;2022-10-23T13:53:48;26.30;48.40
1337;DHT22;662;48.814;9.318;2022-10-23T13:56:16;26.00;49.20
1337;DHT22;662;48.814;9.318;2022-10-23T13:58:42;25.70;49.90
1337;DHT22;662;48.814;9.318;2022-10-23T14:01:29;25.50;50.40
1337;DHT22;662;48.814;9.318;2022-10-23T14:03:56;25.20;50.70
1337;DHT22;662;48.814;9.318;2022-10-23T14:06:22;25.00;50.90
1337;DHT22;662;48.814;9.318;2022-10-23T14:08:48;24.70;51.30
1337;DHT22;662;48.814;9.318;2022-10-23T14:11:16;24.50;51.80
1337;DHT22;662;48.814;9.318;2022-10-23T14:13:41;24.30;52.00
1337;DHT22;662;48.814;9.318;2022-10-23T14:16:10;24.10;52.30
1337;DHT22;662;48.814;9.318;2022-10-23T14:18:36;23.90;52.50
1337;DHT22;662;48.814;9.318;2022-10-23T14:21:03;23.70;52.90
1337;DHT22;662;48.814;9.318;2022-10-23T14:23:29;23.60;53.40
1337;DHT22;662;48.814;9.318;2022-10-23T14:26:09;23.40;54.00
1337;DHT22;662;48.814;9.318;2022-10-23T14:28:35;23.20;54.80
1337;DHT22;662;48.814;9.318;2022-10-23T14:31:06;23.10;55.20
1337;DHT22;662;48.814;9.318;2022-10-23T14:33:32;22.90;55.70
1337;DHT22;662;48.814;9.318;2022-10-23T14:35:57;22.80;55.90
1337;DHT22;662;48.814;9.318;2022-10-23T14:38:23;22.70;56.30
1337;DHT22;662;48.814;9.318;2022-10-23T14:40:48;22.60;56.70
1337;DHT22;662;48.814;9.318;2022-10-23T14:43:14;22.50;57.10
1337;DHT22;662;48.814;9.318;2022-10-23T14:45:39;22.40;57.60
1337;DHT22;662;48.814;9.318;2022-10-23T14:48:05;22.30;58.10
1337;DHT22;662;48.814;9.318;2022-10-23T14:50:35;22.20;58.30
1337;DHT22;662;48.814;9.318;2022-10-23T14:53:01;22.10;58.40
1337;DHT22;662;48.814;9.318;2022-10-23T14:55:26;22.00;58.70
1337;DHT22;662;48.814;9.318;2022-10-23T14:57:55;21.90;58.90
1337;DHT22;662;48.814;9.318;2022-10-23T15:00:22;21.90;59.40
1337;DHT22;662;48.814;9.318;2022-10-23T15:02:47;21.90;59.80
1337;DHT22;662;48.814;9.318;2022-10-23T15:05:13;21.70;59.90
1337;DHT22;662;48.814;9.318;2022-10-23T15:07:39;21.70;60.10
1337;DHT22;662;48.814;9.318;2022-10-23T15:10:05;21.70;60.40
1337;DHT22;662;48.814;9.318;2022-10-23T15:12:31;21.60;60.50
1337;DHT22;662;48.814;9.318;2022-10-23T15:14:57;21.50;60.90
1337;DHT22;662;48.814;9.318;2022-10-23T15:17:22;21.50;61.30
1337;DHT22;662;48.814;9.318;2022-10-23T15:19:48;21.50;61.60
1337;DHT22;662;48.814;9.318;2022-10-23T15:22:14;21.40;61.70
1337;DHT22;662;48.814;9.318;2022-10-23T15:24:39;21.40;61.90
1337;DHT22;662;48.814;9.318;2022-10-23T15:27:05;21.30;62.00
1337;DHT22;662;48.814;9.318;2022-10-23T15:29:31;21.30;62.20
1337;DHT22;662;48.814;9.318;2022-10-23T15:31:57;21.30;62.50
1337;DHT22;662;48.814;9.318;2022-10-23T15:34:26;21.20;62.90
1337;DHT22;662;48.814;9.318;2022-10-23T15:36:53;21.20;63.20
1337;DHT22;662;48.814;9.318;2022-10-23T15:39:21;21.10;63.40
1337;DHT22;662;48.814;9.318;2022-10-23T15:41:53;21.10;63.80
1337;DHT22;662;48.814;9.318;2022-10-23T15:44:20;21.00;64.50
1337;DHT22;662;48.814;9.318;2022-10-23T15:46:47;21.00;64.90
1337;DHT22;662;48.814;9.318;2022-10-23T15:49:13;21.00;65.10
1337;DHT22;662;48.814;9.318;2022-10-23T15:51:39;20.90;65.30
1337;DHT22;662;48.814;9.318;2022-10-23T15:54:06;20.90;65.50
1337;DHT22;662;48.814;9.318;2022-10-23T15:56:34;20.90;65.70
1337;DHT22;662;48.814;9.318;2022-10-23T15:58:59;20.90;66.00
1337;DHT22;662;48.814;9.318;2022-10-23T16:01:25;20.90;66.10
1337;DHT22;662;48.814;9.318;2022-10-23T16:03:51;20.80;66.20
1337;DHT22;662;48.814;9.318;2022-10-23T16:06:18;20.80;66.30
1337;DHT22;662;48.814;9.318;2022-10-23T16:08:44;20.70;66.50
1337;DHT22;662;48.814;9.318;2022-10-23T16:11:16;20.70;66.90
1337;DHT22;662;48.814;9.318;2022-10-23T16:13:43;20.70;67.20
1337;DHT22;662;48.814;9.318;2022-10-23T16:16:09;20.60;67.40
1337;DHT22;662;48.814;9.318;2022-10-23T16:18:35;20.60;67.80
1337;DHT22;662;48.814;9.318;2022-10-23T16:21:00;20.50;68.00
1337;DHT22;662;48.814;9.318;2022-10-23T16:23:26;20.50;68.20
1337;DHT22;662;48.814;9.318;2022-10-23T16:25:53;20.40;68.30
1337;DHT22;662;48.814;9.318;2022-10-23T16:28:19;20.40;68.50
1337;DHT22;662;48.814;9.318;2022-10-23T16:30:45;20.40;68.60
1337;DHT22;662;48.814;9.318;2022-10-23T16:33:11;20.30;68.80
1337;DHT22;662;48.814;9.318;2022-10-23T16:35:37;20.20;68.90
1337;DHT22;662;48.814;9.318;2022-10-23T16:38:04;20.20;68.90
1337;DHT22;662;48.814;9.318;2022-10-23T16:40:30;20.20;68.90
1337;DHT22;662;48.814;9.318;2022-10-23T16:42:56;20.10;68.80
1337;DHT22;662;48.814;9.318;2022-10-23T16:45:22;20.00;68.70
1337;DHT22;662;48.814;9.318;2022-10-23T16:47:48;20.10;68.80
1337;DHT22;662;48.814;9.318;2022-10-23T16:50:14;20.00;68.60
1337;DHT22;662;48.814;9.318;2022-10-23T16:52:40;20.00;68.70
1337;DHT22;662;48.814;9.318;2022-10-23T16:55:06;20.00;68.80
1337;DHT22;662;48.814;9.318;2022-10-23T16:57:34;20.00;68.80
1337;DHT22;662;48.814;9.318;2022-10-23T16:59:59;19.90;68.90
1337;DHT22;662;48.814;9.318;2022-10-23T17:02:25;19.90;69.00
1337;DHT22;662;48.814;9.318;2022-10-23T17:04:51;19.80;69.00
1337;DHT22;662;48.814;9.318;2022-10-23T17:07:17;19.80;69.00
1337;DHT22;662;48.814;9.318;2022-10-23T17:09:44;19.70;68.70
1337;DHT22;662;48.814;9.318;2022-10-23T17:12:12;19.70;68.70
1337;DHT22;662;48.814;9.318;2022-10-23T17:14:37;19.70;68.60
1337;DHT22;662;48.814;9.318;2022-10-23T17:17:03;19.70;68.50
1337;DHT22;662;48.814;9.318;2022-10-23T17:19:32;19.70;68.50
1337;DHT22;662;48.814;9.318;2022-10-23T17:21:59;19.70;68.30
1337;DHT22;662;48.814;9.318;2022-10-23T17:24:25;19.70;68.30
1337;DHT22;662;48.814;9.318;2022-10-23T17:26:51;19.70;68.30
1337;DHT22;662;48.814;9.318;2022-10-23T17:29:17;19.70;68.10
1337;DHT22;662;48.814;9.318;2022-10-23T17:31:45;19.70;67.80
1337;DHT22;662;48.814;9.318;2022-10-23T17:34:13;19.70;67.50
1337;DHT22;662;48.814;9.318;2022-10-23T17:36:43;19.70;67.30
1337;DHT22;662;48.814;9.318;2022-10-23T17:39:11;19.70;67.20
1337;DHT22;662;48.814;9.318;2022-10-23T17:41:38;19.70;67.10
1337;DHT22;662;48.814;9.318;2022-10-23T17:44:03;19.70;67.10
1337;DHT22;662;48.814;9.318;2022-10-23T17:46:29;19.70;67.20
1337;DHT22;662;48.814;9.318;2022-10-23T17:49:00;19.70;67.30
1337;DHT22;662;48.814;9.318;2022-10-23T17:51:28;19.70;67.30
1337;DHT22;662;48.814;9.318;2022-10-23T17:53:55;19.70;67.30
1337;DHT22;662;48.814;9.318;2022-10-23T17:56:24;19.70;67.40
1337;DHT22;662;48.814;9.318;2022-10-23T17:58:58;19.60;67.30
1337;DHT22;662;48.814;9.318;2022-10-23T18:01:26;19.60;67.40
1337;DHT22;662;48.814;9.318;2022-10-23T18:03:53;19.60;67.20
1337;DHT22;662;48.814;9.318;2022-10-23T18:06:22;19.60;66.60
1337;DHT22;662;48.814;9.318;2022-10-23T18:08:49;19.70;66.60
1337;DHT22;662;48.814;9.318;2022-10-23T18:11:20;19.60;66.40
1337;DHT22;662;48.814;9.318;2022-10-23T18:13:46;19.70;66.40
1337;DHT22;662;48.814;9.318;2022-10-23T18:16:12;19.60;66.00
1337;DHT22;662;48.814;9.318;2022-10-23T18:18:39;19.60;65.80